sensor_id;sensor_type;location;lat;lon;timestamp;pressure;altitude;pressure_sealevel;temperature;humidity
4022;BME280;2025;48.260;16.432;2024-02-16T00:02:01;100280.91;;;2.48;100.00
4022;BME280;2025;48.260;16.432;2024-02-16T00:04:29;100280.41;;;2.43;100.00
4022;BME280;2025;48.260;16.432;2024-02-16T00:06:56;100281.53;;;2.39;100.00
4022;BME280;2025;48.260;16.432;2024-02-16T00:09:23;100282.59;;;2.36;100.00
4022;BME280;2025;48.260;16.432;2024-02-16T00:11:52;100280.72;;;2.38;100.00
4022;BME280;2025;48.260;16.432;2024-02-16T00:14:19;100285.78;;;2.40;100.00
4022;BME280;2025;48.260;16.432;2024-02-16T00:16:47;100278.22;;;2.37;100.00
4022;BME280;2025;48.260;16.432;2024-02-16T00:19:14;100277.38;;;2.36;100.00
4022;BME280;2025;48.260;16.432;2024-02-16T00:21:41;100284.00;;;2.02;100.00
4022;BME280;2025;48.260;16.432;2024-02-16T00:24:08;100272.97;;;1.85;100.00
4022;BME280;2025;48.260;16.432;2024-02-16T00:26:36;100278.44;;;1.81;100.00
4022;BME280;2025;48.260;16.432;2024-02-16T00:29:06;100278.38;;;1.82;100.00
4022;BME280;2025;48.260;16.432;2024-02-16T00:31:34;100276.81;;;1.80;100.00
4022;BME280;2025;48.260;16.432;2024-02-16T00:34:01;100280.53;;;1.76;100.00
4022;BME280;2025;48.260;16.432;2024-02-16T00:36:28;100275.13;;;1.79;100.00
4022;BME280;2025;48.260;16.432;2024-02-16T00:38:56;100271.25;;;1.72;100.00
4022;BME280;2025;48.260;16.432;2024-02-16T00:41:23;100270.72;;;1.66;100.00
4022;BME280;2025;48.260;16.432;2024-02-16T00:43:51;100270.13;;;1.48;100.00
4022;BME280;2025;48.260;16.432;2024-02-16T00:46:20;100273.53;;;1.36;100.00
4022;BME280;2025;48.260;16.432;2024-02-16T00:48:48;100263.38;;;1.46;100.00
4022;BME280;2025;48.260;16.432;2024-02-16T00:51:16;100266.50;;;1.51;100.00
4022;BME280;2025;48.260;16.432;2024-02-16T00:53:43;100258.34;;;1.57;100.00
4022;BME280;2025;48.260;16.432;2024-02-16T00:56:10;100247.88;;;1.59;100.00
4022;BME280;2025;48.260;16.432;2024-02-16T00:58:40;100251.69;;;1.53;100.00
4022;BME280;2025;48.260;16.432;2024-02-16T01:01:08;100250.47;;;1.59;100.00
4022;BME280;2025;48.260;16.432;2024-02-16T01:03:38;100245.44;;;1.56;100.00
4022;BME280;2025;48.260;16.432;2024-02-16T01:06:06;100246.84;;;1.61;100.00
4022;BME280;2025;48.260;16.432;2024-02-16T01:08:34;100239.88;;;1.75;100.00
4022;BME280;2025;48.260;16.432;2024-02-16T01:11:01;100244.81;;;1.92;100.00
4022;BME280;2025;48.260;16.432;2024-02-16T01:13:28;100243.38;;;2.01;100.00
4022;BME280;2025;48.260;16.432;2024-02-16T01:15:55;100244.00;;;2.04;100.00
4022;BME280;2025;48.260;16.432;2024-02-16T01:18:23;100241.81;;;2.11;100.00
4022;BME280;2025;48.260;16.432;2024-02-16T01:20:51;100240.06;;;2.24;100.00
4022;BME280;2025;48.260;16.432;2024-02-16T01:23:19;100233.59;;;2.30;100.00
4022;BME280;2025;48.260;16.432;2024-02-16T01:25:46;100231.63;;;2.34;100.00
4022;BME280;2025;48.260;16.432;2024-02-16T01:28:13;100229.56;;;2.39;100.00
4022;BME280;2025;48.260;16.432;2024-02-16T01:30:41;100229.75;;;2.48;100.00
4022;BME280;2025;48.260;16.432;2024-02-16T01:33:08;100227.25;;;2.60;100.00
4022;BME280;2025;48.260;16.432;2024-02-16T01:35:36;100223.19;;;2.68;100.00
4022;BME280;2025;48.260;16.432;2024-02-16T01:38:04;100222.84;;;2.73;100.00
4022;BME280;2025;48.260;16.432;2024-02-16T01:40:32;100225.16;;;2.65;100.00
4022;BME280;2025;48.260;16.432;2024-02-16T01:42:59;100229.63;;;2.63;100.00
4022;BME280;2025;48.260;16.432;2024-02-16T01:45:26;100226.41;;;2.59;100.00
4022;BME280;2025;48.260;16.432;2024-02-16T01:47:54;100218.94;;;2.55;100.00
4022;BME280;2025;48.260;16.432;2024-02-16T01:50:22;100219.84;;;2.53;100.00
4022;BME280;2025;48.260;16.432;2024-02-16T01:52:50;100216.34;;;2.42;100.00
4022;BME280;2025;48.260;16.432;2024-02-16T01:55:19;100213.00;;;2.40;100.00
4022;BME280;2025;48.260;16.432;2024-02-16T01:57:48;100219.06;;;2.15;100.00
4022;BME280;2025;48.260;16.432;2024-02-16T02:00:15;100218.63;;;1.82;100.00
4022;BME280;2025;48.260;16.432;2024-02-16T02:02:44;100216.34;;;1.78;100.00
4022;BME280;2025;48.260;16.432;2024-02-16T02:05:12;100211.63;;;1.70;100.00
4022;BME280;2025;48.260;16.432;2024-02-16T02:07:40;100210.19;;;1.79;100.00
4022;BME280;2025;48.260;16.432;2024-02-16T02:10:09;100210.38;;;1.63;100.00
4022;BME280;2025;48.260;16.432;2024-02-16T02:12:39;100198.88;;;1.40;100.00
4022;BME280;2025;48.260;16.432;2024-02-16T02:15:08;100201.28;;;1.43;100.00
4022;BME280;2025;48.260;16.432;2024-02-16T02:17:35;100200.03;;;1.36;100.00
4022;BME280;2025;48.260;16.432;2024-02-16T02:20:03;100194.34;;;1.43;100.00
4022;BME280;2025;48.260;16.432;2024-02-16T02:22:35;100187.38;;;1.44;100.00
4022;BME280;2025;48.260;16.432;2024-02-16T02:25:02;100187.50;;;1.42;100.00
4022;BME280;2025;48.260;16.432;2024-02-16T02:27:30;100182.41;;;1.54;100.00
4022;BME280;2025;48.260;16.432;2024-02-16T02:29:58;100181.72;;;1.64;100.00
4022;BME280;2025;48.260;16.432;2024-02-16T02:32:25;100179.53;;;1.71;100.00
4022;BME280;2025;48.260;16.432;2024-02-16T02:34:52;100177.25;;;1.66;100.00
4022;BME280;2025;48.260;16.432;2024-02-16T02:37:19;100184.00;;;1.69;100.00
4022;BME280;2025;48.260;16.432;2024-02-16T02:39:48;100173.75;;;1.80;100.00
4022;BME280;2025;48.260;16.432;2024-02-16T02:42:15;100175.50;;;1.80;100.00
4022;BME280;2025;48.260;16.432;2024-02-16T02:44:43;100166.47;;;1.98;100.00
4022;BME280;2025;48.260;16.432;2024-02-16T02:47:15;100163.78;;;2.13;100.00
4022;BME280;2025;48.260;16.432;2024-02-16T02:49:42;100163.50;;;2.41;100.00
4022;BME280;2025;48.260;16.432;2024-02-16T02:52:09;100159.31;;;2.51;100.00
4022;BME280;2025;48.260;16.432;2024-02-16T02:54:36;100160.88;;;2.54;100.00
4022;BME280;2025;48.260;16.432;2024-02-16T02:57:05;100162.97;;;2.62;100.00
4022;BME280;2025;48.260;16.432;2024-02-16T02:59:32;100164.19;;;2.69;100.00
4022;BME280;2025;48.260;16.432;2024-02-16T03:01:59;100163.03;;;2.73;100.00
4022;BME280;2025;48.260;16.432;2024-02-16T03:04:26;100166.06;;;2.91;100.00
4022;BME280;2025;48.260;16.432;2024-02-16T03:06:53;100161.59;;;2.93;100.00
4022;BME280;2025;48.260;16.432;2024-02-16T03:09:20;100162.53;;;2.92;100.00
4022;BME280;2025;48.260;16.432;2024-02-16T03:11:48;100161.25;;;2.98;100.00
4022;BME280;2025;48.260;16.432;2024-02-16T03:14:16;100152.84;;;3.18;100.00
4022;BME280;2025;48.260;16.432;2024-02-16T03:16:43;100157.00;;;3.21;100.00
4022;BME280;2025;48.260;16.432;2024-02-16T03:19:11;100162.44;;;3.17;100.00
4022;BME280;2025;48.260;16.432;2024-02-16T03:21:38;100170.69;;;3.11;100.00
4022;BME280;2025;48.260;16.432;2024-02-16T03:24:05;100170.72;;;3.23;100.00
4022;BME280;2025;48.260;16.432;2024-02-16T03:26:33;100161.69;;;3.40;100.00
4022;BME280;2025;48.260;16.432;2024-02-16T03:29:00;100162.63;;;3.38;100.00
4022;BME280;2025;48.260;16.432;2024-02-16T03:31:28;100159.56;;;3.45;100.00
4022;BME280;2025;48.260;16.432;2024-02-16T03:33:55;100163.91;;;3.33;100.00
4022;BME280;2025;48.260;16.432;2024-02-16T03:36:23;100163.75;;;3.23;100.00
4022;BME280;2025;48.260;16.432;2024-02-16T03:38:50;100161.03;;;3.25;100.00
4022;BME280;2025;48.260;16.432;2024-02-16T03:41:19;100160.75;;;3.16;100.00
4022;BME280;2025;48.260;16.432;2024-02-16T03:43:46;100155.88;;;3.12;100.00
4022;BME280;2025;48.260;16.432;2024-02-16T03:46:13;100167.91;;;3.02;100.00
4022;BME280;2025;48.260;16.432;2024-02-16T03:48:42;100168.00;;;3.00;100.00
4022;BME280;2025;48.260;16.432;2024-02-16T03:51:10;100165.03;;;2.93;100.00
4022;BME280;2025;48.260;16.432;2024-02-16T03:53:37;100162.31;;;2.95;100.00
4022;BME280;2025;48.260;16.432;2024-02-16T03:56:04;100165.25;;;2.90;100.00
4022;BME280;2025;48.260;16.432;2024-02-16T03:58:33;100170.75;;;2.99;100.00
4022;BME280;2025;48.260;16.432;2024-02-16T04:01:00;100177.09;;;2.94;100.00
4022;BME280;2025;48.260;16.432;2024-02-16T04:03:27;100174.59;;;2.93;100.00
4022;BME280;2025;48.260;16.432;2024-02-16T04:05:55;100175.56;;;2.92;100.00
4022;BME280;2025;48.260;16.432;2024-02-16T04:08:22;100180.25;;;2.87;100.00
4022;BME280;2025;48.260;16.432;2024-02-16T04:10:49;100169.59;;;2.66;100.00
4022;BME280;2025;48.260;16.432;2024-02-16T04:13:16;100170.94;;;2.59;100.00
4022;BME280;2025;48.260;16.432;2024-02-16T04:15:43;100177.09;;;2.58;100.00
4022;BME280;2025;48.260;16.432;2024-02-16T04:18:10;100184.59;;;2.62;100.00
4022;BME280;2025;48.260;16.432;2024-02-16T04:20:37;100177.94;;;2.58;100.00
4022;BME280;2025;48.260;16.432;2024-02-16T04:23:08;100184.31;;;2.41;100.00
4022;BME280;2025;48.260;16.432;2024-02-16T04:25:35;100180.25;;;2.37;100.00
4022;BME280;2025;48.260;16.432;2024-02-16T04:28:02;100192.53;;;2.35;100.00
4022;BME280;2025;48.260;16.432;2024-02-16T04:30:29;100195.66;;;2.02;100.00
4022;BME280;2025;48.260;16.432;2024-02-16T04:32:56;100193.59;;;1.94;100.00
4022;BME280;2025;48.260;16.432;2024-02-16T04:35:23;100195.22;;;1.69;100.00
4022;BME280;2025;48.260;16.432;2024-02-16T04:37:50;100206.50;;;1.56;100.00
4022;BME280;2025;48.260;16.432;2024-02-16T04:40:19;100199.22;;;1.48;100.00
4022;BME280;2025;48.260;16.432;2024-02-16T04:42:46;100198.88;;;1.40;100.00
4022;BME280;2025;48.260;16.432;2024-02-16T04:45:13;100200.78;;;1.38;100.00
4022;BME280;2025;48.260;16.432;2024-02-16T04:47:40;100197.63;;;1.33;100.00
4022;BME280;2025;48.260;16.432;2024-02-16T04:50:08;100195.72;;;1.22;100.00
4022;BME280;2025;48.260;16.432;2024-02-16T04:52:37;100200.50;;;1.28;100.00
4022;BME280;2025;48.260;16.432;2024-02-16T04:55:07;100198.13;;;1.25;100.00
4022;BME280;2025;48.260;16.432;2024-02-16T04:57:36;100199.06;;;1.24;100.00
4022;BME280;2025;48.260;16.432;2024-02-16T05:00:03;100200.53;;;1.01;100.00
4022;BME280;2025;48.260;16.432;2024-02-16T05:02:31;100198.97;;;0.98;100.00
4022;BME280;2025;48.260;16.432;2024-02-16T05:04:58;100190.38;;;0.83;100.00
4022;BME280;2025;48.260;16.432;2024-02-16T05:07:25;100199.44;;;0.91;100.00
4022;BME280;2025;48.260;16.432;2024-02-16T05:09:52;100192.78;;;0.87;100.00
4022;BME280;2025;48.260;16.432;2024-02-16T05:12:23;100191.50;;;1.07;100.00
4022;BME280;2025;48.260;16.432;2024-02-16T05:14:52;100183.09;;;1.30;100.00
4022;BME280;2025;48.260;16.432;2024-02-16T05:17:19;100185.34;;;1.62;100.00
4022;BME280;2025;48.260;16.432;2024-02-16T05:19:48;100188.25;;;1.70;100.00
4022;BME280;2025;48.260;16.432;2024-02-16T05:22:15;100178.13;;;2.05;100.00
4022;BME280;2025;48.260;16.432;2024-02-16T05:24:44;100185.91;;;2.18;100.00
4022;BME280;2025;48.260;16.432;2024-02-16T05:27:11;100185.66;;;2.47;100.00
4022;BME280;2025;48.260;16.432;2024-02-16T05:29:38;100186.38;;;2.49;100.00
4022;BME280;2025;48.260;16.432;2024-02-16T05:32:07;100183.97;;;2.59;100.00
4022;BME280;2025;48.260;16.432;2024-02-16T05:34:36;100190.41;;;2.66;100.00
4022;BME280;2025;48.260;16.432;2024-02-16T05:37:04;100184.25;;;2.67;100.00
4022;BME280;2025;48.260;16.432;2024-02-16T05:39:32;100193.75;;;2.55;100.00
4022;BME280;2025;48.260;16.432;2024-02-16T05:42:01;100188.47;;;2.57;100.00
4022;BME280;2025;48.260;16.432;2024-02-16T05:44:29;100185.03;;;2.43;100.00
4022;BME280;2025;48.260;16.432;2024-02-16T05:46:58;100186.88;;;2.54;100.00
4022;BME280;2025;48.260;16.432;2024-02-16T05:49:27;100186.38;;;2.49;100.00
4022;BME280;2025;48.260;16.432;2024-02-16T05:51:55;100186.19;;;2.52;100.00
4022;BME280;2025;48.260;16.432;2024-02-16T05:54:42;100193.34;;;2.61;100.00
4022;BME280;2025;48.260;16.432;2024-02-16T05:57:09;100190.34;;;2.55;100.00
4022;BME280;2025;48.260;16.432;2024-02-16T05:59:36;100190.75;;;2.61;100.00
4022;BME280;2025;48.260;16.432;2024-02-16T06:02:04;100194.28;;;2.84;100.00
4022;BME280;2025;48.260;16.432;2024-02-16T06:04:33;100195.34;;;2.82;100.00
4022;BME280;2025;48.260;16.432;2024-02-16T06:07:00;100200.03;;;2.89;100.00
4022;BME280;2025;48.260;16.432;2024-02-16T06:09:27;100197.03;;;3.07;100.00
4022;BME280;2025;48.260;16.432;2024-02-16T06:12:03;100199.97;;;3.02;100.00
4022;BME280;2025;48.260;16.432;2024-02-16T06:14:31;100200.44;;;2.96;100.00
4022;BME280;2025;48.260;16.432;2024-02-16T06:16:58;100197.03;;;3.07;100.00
4022;BME280;2025;48.260;16.432;2024-02-16T06:19:25;100195.94;;;3.22;100.00
4022;BME280;2025;48.260;16.432;2024-02-16T06:21:54;100201.47;;;3.42;100.00
4022;BME280;2025;48.260;16.432;2024-02-16T06:24:24;100196.16;;;3.43;100.00
4022;BME280;2025;48.260;16.432;2024-02-16T06:26:51;100207.78;;;3.50;100.00
4022;BME280;2025;48.260;16.432;2024-02-16T06:29:18;100204.78;;;3.44;100.00
4022;BME280;2025;48.260;16.432;2024-02-16T06:31:46;100207.44;;;3.31;100.00
4022;BME280;2025;48.260;16.432;2024-02-16T06:34:14;100213.03;;;3.37;100.00
4022;BME280;2025;48.260;16.432;2024-02-16T06:36:41;100219.25;;;3.48;100.00
4022;BME280;2025;48.260;16.432;2024-02-16T06:39:11;100210.72;;;3.46;100.00
4022;BME280;2025;48.260;16.432;2024-02-16T06:41:42;100208.44;;;3.41;100.00
4022;BME280;2025;48.260;16.432;2024-02-16T06:44:09;100211.44;;;3.48;100.00
4022;BME280;2025;48.260;16.432;2024-02-16T06:46:37;100217.97;;;3.53;100.00
4022;BME280;2025;48.260;16.432;2024-02-16T06:49:04;100220.13;;;3.59;100.00
4022;BME280;2025;48.260;16.432;2024-02-16T06:51:31;100221.31;;;3.67;99.75
4022;BME280;2025;48.260;16.432;2024-02-16T06:53:58;100227.25;;;3.69;100.00
4022;BME280;2025;48.260;16.432;2024-02-16T06:56:26;100229.72;;;3.70;100.00
4022;BME280;2025;48.260;16.432;2024-02-16T06:58:53;100231.41;;;3.71;100.00
4022;BME280;2025;48.260;16.432;2024-02-16T07:01:20;100228.94;;;3.81;99.79
4022;BME280;2025;48.260;16.432;2024-02-16T07:03:47;100226.50;;;4.02;98.42
4022;BME280;2025;48.260;16.432;2024-02-16T07:06:14;100234.81;;;4.07;98.59
4022;BME280;2025;48.260;16.432;2024-02-16T07:08:43;100234.75;;;4.31;97.24
4022;BME280;2025;48.260;16.432;2024-02-16T07:11:10;100232.00;;;4.33;96.98
4022;BME280;2025;48.260;16.432;2024-02-16T07:13:40;100231.75;;;4.47;96.77
4022;BME280;2025;48.260;16.432;2024-02-16T07:16:08;100235.09;;;4.72;94.46
4022;BME280;2025;48.260;16.432;2024-02-16T07:18:35;100231.88;;;4.68;95.59
4022;BME280;2025;48.260;16.432;2024-02-16T07:21:03;100224.03;;;4.91;93.98
4022;BME280;2025;48.260;16.432;2024-02-16T07:23:30;100230.06;;;5.02;93.58
4022;BME280;2025;48.260;16.432;2024-02-16T07:25:57;100218.88;;;5.23;91.37
4022;BME280;2025;48.260;16.432;2024-02-16T07:28:25;100220.84;;;5.31;91.58
4022;BME280;2025;48.260;16.432;2024-02-16T07:30:54;100219.34;;;5.49;90.55
4022;BME280;2025;48.260;16.432;2024-02-16T07:33:21;100228.56;;;5.64;89.83
4022;BME280;2025;48.260;16.432;2024-02-16T07:35:50;100221.63;;;5.75;89.40
4022;BME280;2025;48.260;16.432;2024-02-16T07:38:17;100220.16;;;5.82;89.65
4022;BME280;2025;48.260;16.432;2024-02-16T07:40:47;100221.19;;;5.90;88.87
4022;BME280;2025;48.260;16.432;2024-02-16T07:43:16;100218.84;;;6.08;87.36
4022;BME280;2025;48.260;16.432;2024-02-16T07:45:43;100220.28;;;6.22;85.74
4022;BME280;2025;48.260;16.432;2024-02-16T07:48:12;100222.50;;;6.27;85.88
4022;BME280;2025;48.260;16.432;2024-02-16T07:50:39;100217.06;;;6.40;85.36
4022;BME280;2025;48.260;16.432;2024-02-16T07:53:06;100215.97;;;6.42;85.09
4022;BME280;2025;48.260;16.432;2024-02-16T07:55:35;100217.03;;;6.61;84.46
4022;BME280;2025;48.260;16.432;2024-02-16T07:58:02;100221.47;;;6.70;84.33
4022;BME280;2025;48.260;16.432;2024-02-16T08:00:29;100232.25;;;6.77;84.24
4022;BME280;2025;48.260;16.432;2024-02-16T08:02:56;100221.66;;;6.88;82.86
4022;BME280;2025;48.260;16.432;2024-02-16T08:05:25;100228.44;;;7.00;83.06
4022;BME280;2025;48.260;16.432;2024-02-16T08:07:52;100228.16;;;7.03;81.41
4022;BME280;2025;48.260;16.432;2024-02-16T08:10:20;100224.59;;;7.14;80.27
4022;BME280;2025;48.260;16.432;2024-02-16T08:12:48;100220.50;;;7.31;79.33
4022;BME280;2025;48.260;16.432;2024-02-16T08:15:15;100221.19;;;7.33;79.02
4022;BME280;2025;48.260;16.432;2024-02-16T08:17:48;100218.03;;;7.39;79.57
4022;BME280;2025;48.260;16.432;2024-02-16T08:20:15;100215.00;;;7.53;78.02
4022;BME280;2025;48.260;16.432;2024-02-16T08:22:43;100201.31;;;7.59;78.10
4022;BME280;2025;48.260;16.432;2024-02-16T08:25:10;100206.81;;;7.76;76.97
4022;BME280;2025;48.260;16.432;2024-02-16T08:27:38;100214.84;;;7.74;77.74
4022;BME280;2025;48.260;16.432;2024-02-16T08:30:06;100199.19;;;7.92;76.22
4022;BME280;2025;48.260;16.432;2024-02-16T08:32:34;100210.13;;;7.97;75.83
4022;BME280;2025;48.260;16.432;2024-02-16T08:35:01;100197.41;;;8.02;75.50
4022;BME280;2025;48.260;16.432;2024-02-16T08:37:28;100201.81;;;8.02;75.28
4022;BME280;2025;48.260;16.432;2024-02-16T08:39:57;100206.19;;;8.21;74.96
4022;BME280;2025;48.260;16.432;2024-02-16T08:42:24;100214.97;;;8.30;74.75
4022;BME280;2025;48.260;16.432;2024-02-16T08:44:51;100203.09;;;8.45;74.25
4022;BME280;2025;48.260;16.432;2024-02-16T08:47:18;100201.44;;;8.44;73.05
4022;BME280;2025;48.260;16.432;2024-02-16T08:49:45;100210.34;;;8.61;74.43
4022;BME280;2025;48.260;16.432;2024-02-16T08:52:12;100209.84;;;8.75;72.97
4022;BME280;2025;48.260;16.432;2024-02-16T08:54:39;100213.94;;;8.88;72.35
4022;BME280;2025;48.260;16.432;2024-02-16T08:57:08;100218.69;;;9.02;72.15
4022;BME280;2025;48.260;16.432;2024-02-16T08:59:35;100213.16;;;9.05;71.56
4022;BME280;2025;48.260;16.432;2024-02-16T09:02:02;100213.59;;;9.18;70.57
4022;BME280;2025;48.260;16.432;2024-02-16T09:04:30;100219.94;;;9.25;70.48
4022;BME280;2025;48.260;16.432;2024-02-16T09:06:57;100221.19;;;9.39;70.64
4022;BME280;2025;48.260;16.432;2024-02-16T09:09:24;100213.63;;;9.54;71.56
4022;BME280;2025;48.260;16.432;2024-02-16T09:11:51;100212.72;;;9.63;69.28
4022;BME280;2025;48.260;16.432;2024-02-16T09:14:20;100215.72;;;9.68;69.74
4022;BME280;2025;48.260;16.432;2024-02-16T09:16:48;100207.94;;;9.85;68.36
4022;BME280;2025;48.260;16.432;2024-02-16T09:19:17;100202.38;;;9.88;67.67
4022;BME280;2025;48.260;16.432;2024-02-16T09:21:45;100203.56;;;9.94;67.67
4022;BME280;2025;48.260;16.432;2024-02-16T09:24:12;100209.34;;;9.97;67.25
4022;BME280;2025;48.260;16.432;2024-02-16T09:26:43;100200.88;;;10.11;67.21
4022;BME280;2025;48.260;16.432;2024-02-16T09:29:11;100211.78;;;10.17;66.00
4022;BME280;2025;48.260;16.432;2024-02-16T09:31:40;100202.06;;;10.17;66.21
4022;BME280;2025;48.260;16.432;2024-02-16T09:34:07;100216.13;;;10.26;66.57
4022;BME280;2025;48.260;16.432;2024-02-16T09:36:35;100213.63;;;10.50;65.57
4022;BME280;2025;48.260;16.432;2024-02-16T09:39:03;100215.66;;;10.65;65.47
4022;BME280;2025;48.260;16.432;2024-02-16T09:41:34;100213.19;;;10.63;64.33
4022;BME280;2025;48.260;16.432;2024-02-16T09:44:02;100209.78;;;10.79;63.87
4022;BME280;2025;48.260;16.432;2024-02-16T09:46:30;100207.03;;;10.89;63.23
4022;BME280;2025;48.260;16.432;2024-02-16T09:49:01;100216.97;;;11.03;64.04
4022;BME280;2025;48.260;16.432;2024-02-16T09:51:28;100197.03;;;11.01;62.51
4022;BME280;2025;48.260;16.432;2024-02-16T09:53:55;100217.78;;;11.04;62.62
4022;BME280;2025;48.260;16.432;2024-02-16T09:56:22;100211.34;;;11.06;62.89
4022;BME280;2025;48.260;16.432;2024-02-16T09:58:50;100195.09;;;11.19;62.95
4022;BME280;2025;48.260;16.432;2024-02-16T10:01:19;100203.50;;;11.31;61.58
4022;BME280;2025;48.260;16.432;2024-02-16T10:03:47;100211.59;;;11.46;61.24
4022;BME280;2025;48.260;16.432;2024-02-16T10:06:16;100209.44;;;11.57;60.69
4022;BME280;2025;48.260;16.432;2024-02-16T10:08:49;100216.53;;;11.81;61.42
4022;BME280;2025;48.260;16.432;2024-02-16T10:11:17;100207.78;;;11.65;59.94
4022;BME280;2025;48.260;16.432;2024-02-16T10:13:58;100214.56;;;11.67;60.69
4022;BME280;2025;48.260;16.432;2024-02-16T10:16:26;100210.25;;;11.74;60.11
4022;BME280;2025;48.260;16.432;2024-02-16T10:18:55;100207.78;;;11.65;59.88
4022;BME280;2025;48.260;16.432;2024-02-16T10:21:28;100213.94;;;11.90;59.35
4022;BME280;2025;48.260;16.432;2024-02-16T10:24:00;100209.25;;;12.16;59.17
4022;BME280;2025;48.260;16.432;2024-02-16T10:26:28;100203.63;;;12.28;58.06
4022;BME280;2025;48.260;16.432;2024-02-16T10:28:56;100219.72;;;12.49;57.60
4022;BME280;2025;48.260;16.432;2024-02-16T10:31:25;100210.88;;;12.26;57.75
4022;BME280;2025;48.260;16.432;2024-02-16T10:33:57;100212.09;;;12.62;57.07
4022;BME280;2025;48.260;16.432;2024-02-16T10:36:25;100201.81;;;12.76;56.85
4022;BME280;2025;48.260;16.432;2024-02-16T10:38:55;100196.06;;;13.03;55.65
4022;BME280;2025;48.260;16.432;2024-02-16T10:41:26;100196.69;;;13.75;53.69
4022;BME280;2025;48.260;16.432;2024-02-16T10:43:55;100194.25;;;13.73;52.94
4022;BME280;2025;48.260;16.432;2024-02-16T10:46:23;100194.03;;;14.12;53.65
4022;BME280;2025;48.260;16.432;2024-02-16T10:48:51;100193.75;;;14.52;51.12
4022;BME280;2025;48.260;16.432;2024-02-16T10:51:21;100184.53;;;14.63;51.35
4022;BME280;2025;48.260;16.432;2024-02-16T10:53:51;100192.53;;;14.84;49.91
4022;BME280;2025;48.260;16.432;2024-02-16T10:56:31;100184.72;;;15.34;48.76
4022;BME280;2025;48.260;16.432;2024-02-16T10:59:01;100179.28;;;15.21;48.65
4022;BME280;2025;48.260;16.432;2024-02-16T11:01:32;100188.69;;;15.02;49.51
4022;BME280;2025;48.260;16.432;2024-02-16T11:04:04;100177.50;;;15.06;49.35
4022;BME280;2025;48.260;16.432;2024-02-16T11:06:47;100180.03;;;15.14;50.84
4022;BME280;2025;48.260;16.432;2024-02-16T11:09:26;100183.53;;;15.00;49.15
4022;BME280;2025;48.260;16.432;2024-02-16T11:11:58;100175.75;;;15.13;49.27
4022;BME280;2025;48.260;16.432;2024-02-16T11:14:34;100180.41;;;15.33;48.40
4022;BME280;2025;48.260;16.432;2024-02-16T11:17:01;100177.66;;;15.69;47.57
4022;BME280;2025;48.260;16.432;2024-02-16T11:19:29;100175.56;;;15.36;48.32
4022;BME280;2025;48.260;16.432;2024-02-16T11:21:57;100173.97;;;15.21;48.58
4022;BME280;2025;48.260;16.432;2024-02-16T11:24:30;100179.78;;;15.31;48.99
4022;BME280;2025;48.260;16.432;2024-02-16T11:27:01;100167.75;;;15.78;47.26
4022;BME280;2025;48.260;16.432;2024-02-16T11:29:31;100177.19;;;15.37;48.62
4022;BME280;2025;48.260;16.432;2024-02-16T11:31:59;100173.13;;;16.19;48.18
4022;BME280;2025;48.260;16.432;2024-02-16T11:34:27;100168.06;;;15.96;47.32
4022;BME280;2025;48.260;16.432;2024-02-16T11:36:55;100173.38;;;15.96;47.09
4022;BME280;2025;48.260;16.432;2024-02-16T11:39:22;100170.81;;;16.93;45.08
4022;BME280;2025;48.260;16.432;2024-02-16T11:42:00;100168.00;;;16.53;46.11
4022;BME280;2025;48.260;16.432;2024-02-16T11:44:29;100165.41;;;16.31;45.81
4022;BME280;2025;48.260;16.432;2024-02-16T11:46:57;100169.88;;;16.24;46.25
4022;BME280;2025;48.260;16.432;2024-02-16T11:49:24;100169.69;;;16.67;45.76
4022;BME280;2025;48.260;16.432;2024-02-16T11:51:51;100162.63;;;16.39;46.05
4022;BME280;2025;48.260;16.432;2024-02-16T11:54:18;100160.63;;;16.13;46.95
4022;BME280;2025;48.260;16.432;2024-02-16T11:56:46;100168.25;;;16.23;46.11
4022;BME280;2025;48.260;16.432;2024-02-16T11:59:18;100164.50;;;16.11;46.20
4022;BME280;2025;48.260;16.432;2024-02-16T12:01:50;100154.28;;;16.49;45.43
4022;BME280;2025;48.260;16.432;2024-02-16T12:04:21;100166.56;;;16.57;45.10
4022;BME280;2025;48.260;16.432;2024-02-16T12:06:51;100163.16;;;16.70;45.16
4022;BME280;2025;48.260;16.432;2024-02-16T12:09:18;100151.44;;;16.57;45.08
4022;BME280;2025;48.260;16.432;2024-02-16T12:11:48;100143.97;;;16.88;44.63
4022;BME280;2025;48.260;16.432;2024-02-16T12:14:15;100158.00;;;16.61;45.12
4022;BME280;2025;48.260;16.432;2024-02-16T12:16:46;100158.59;;;16.57;46.35
4022;BME280;2025;48.260;16.432;2024-02-16T12:19:14;100162.88;;;16.99;46.35
4022;BME280;2025;48.260;16.432;2024-02-16T12:21:41;100155.16;;;16.63;45.09
4022;BME280;2025;48.260;16.432;2024-02-16T12:24:08;100169.66;;;16.60;45.41
4022;BME280;2025;48.260;16.432;2024-02-16T12:26:36;100166.09;;;16.81;44.74
4022;BME280;2025;48.260;16.432;2024-02-16T12:29:03;100159.44;;;16.57;45.27
4022;BME280;2025;48.260;16.432;2024-02-16T12:31:30;100148.50;;;16.39;46.25
4022;BME280;2025;48.260;16.432;2024-02-16T12:33:59;100155.50;;;17.15;44.00
4022;BME280;2025;48.260;16.432;2024-02-16T12:36:26;100143.38;;;16.85;45.19
4022;BME280;2025;48.260;16.432;2024-02-16T12:38:53;100168.75;;;16.81;45.25
4022;BME280;2025;48.260;16.432;2024-02-16T12:41:20;100149.63;;;16.71;45.47
4022;BME280;2025;48.260;16.432;2024-02-16T12:43:48;100149.22;;;16.19;46.62
4022;BME280;2025;48.260;16.432;2024-02-16T12:46:15;100153.47;;;16.49;45.41
4022;BME280;2025;48.260;16.432;2024-02-16T12:48:42;100147.16;;;16.63;45.44
4022;BME280;2025;48.260;16.432;2024-02-16T12:51:11;100132.53;;;16.32;46.29
4022;BME280;2025;48.260;16.432;2024-02-16T12:53:38;100121.94;;;16.46;46.06
4022;BME280;2025;48.260;16.432;2024-02-16T12:56:07;100139.88;;;16.85;44.71
4022;BME280;2025;48.260;16.432;2024-02-16T12:58:35;100142.06;;;16.20;46.02
4022;BME280;2025;48.260;16.432;2024-02-16T13:01:02;100139.41;;;16.20;46.76
4022;BME280;2025;48.260;16.432;2024-02-16T13:03:33;100142.25;;;16.60;46.87
4022;BME280;2025;48.260;16.432;2024-02-16T13:06:00;100150.22;;;16.60;44.86
4022;BME280;2025;48.260;16.432;2024-02-16T13:08:30;100149.91;;;16.35;47.23